Tefe, Brazil
Current Conditions -  °F | °C
As of 4:00 PM on Tuesday 21 Oct 2014 (Local Time) from SBEG Reporting Station
Broken Clouds Broken Clouds  
Wind Chill: 73°   Ceiling: 10000
Heat Index: 73°   Visibility: 6mi
Dew Point: 72°   Wind: 3mph
Humidity: 94%   Direction: 360°N
Pressure: 29.8"   Gusts: NA
Location:  3.36°S, 64.7°W
Report Text: SBEG 212000Z 36003KT 9999 SCT012 FEW025TCU BKN100 23/22 Q1009 RETS
Loading
Personal Weather Stations






























Interactive Weather Map
Tropical Storm Tracking
New forecast layout! Learn more

10-Day Weather Forecast

Advertisements
Track Severe Weather on mobile